Terminal Aerodrome Forecast
Issued by NWS Corpus Christi, TX

Home | Current Version | Previous Version | Text Only | Print | Product List | Glossary On
Versions: 1 2 3 4 5 6 7 8 9 10 11 12
000
FTUS44 KCRP 291728
TAFVCT
TAF
KVCT 291728Z 2918/3018 VRB03KT P6SM SCT040 BKN250
     FM292200 14012G16KT P6SM SCT050 BKN250
     FM300200 15005KT P6SM SCT250
     FM300600 VRB03KT P6SM SCT020
      TEMPO 3009/3013 BKN020
     FM301300 VRB04KT P6SM BKN025=

USA.gov is the U.S. government's official web portal to all federal, state and local government web resources and services.